createdAt,value
2018-07-05T00:00:25.666Z,5.97
2018-07-05T00:03:07.722Z,6.37
2018-07-05T00:05:49.754Z,7.40
2018-07-05T00:08:31.849Z,5.75
2018-07-05T00:11:14.009Z,6.72
2018-07-05T00:13:56.111Z,5.33
2018-07-05T00:16:38.078Z,6.65
2018-07-05T00:19:19.978Z,7.50
2018-07-05T00:22:02.081Z,6.50
2018-07-05T00:24:44.037Z,7.25
2018-07-05T00:27:25.957Z,6.90
2018-07-05T00:30:07.986Z,6.08
2018-07-05T00:32:50.166Z,7.62
2018-07-05T00:35:32.293Z,7.30
2018-07-05T00:38:14.490Z,6.30
2018-07-05T00:40:56.562Z,6.25
2018-07-05T00:43:38.785Z,6.22
2018-07-05T00:46:20.922Z,6.05
2018-07-05T00:49:02.969Z,10.58
2018-07-05T00:51:45.105Z,6.78
2018-07-05T00:54:27.101Z,6.20
2018-07-05T00:57:09.158Z,8.00
2018-07-05T00:59:51.344Z,7.35
2018-07-05T01:02:33.426Z,6.28
2018-07-05T01:05:15.514Z,6.60
2018-07-05T01:07:57.522Z,7.37
2018-07-05T01:10:39.594Z,5.95
2018-07-05T01:13:21.882Z,7.87
2018-07-05T01:16:03.829Z,7.72
2018-07-05T01:18:45.797Z,7.20
2018-07-05T01:21:28.018Z,6.33
2018-07-05T01:24:10.297Z,6.22
2018-07-05T01:26:52.406Z,5.72
2018-07-05T01:29:34.382Z,7.20
2018-07-05T01:32:16.486Z,5.50
2018-07-05T01:34:58.481Z,6.62
2018-07-05T01:37:40.638Z,8.88
2018-07-05T01:40:22.721Z,7.78
2018-07-05T01:43:04.729Z,7.37
2018-07-05T01:45:46.742Z,6.80
2018-07-05T01:48:28.765Z,6.40
2018-07-05T01:51:10.825Z,7.28
2018-07-05T01:53:52.977Z,7.40
2018-07-05T01:56:34.937Z,8.53
2018-07-05T01:59:17.097Z,8.98
2018-07-05T02:01:59.146Z,6.12
2018-07-05T02:04:41.525Z,6.75
2018-07-05T02:07:23.489Z,8.05
2018-07-05T02:10:05.542Z,5.47
2018-07-05T02:12:47.537Z,5.58
2018-07-05T02:15:29.635Z,6.95
2018-07-05T02:18:11.794Z,5.10
2018-07-05T02:20:54.002Z,6.50
2018-07-05T02:23:36.166Z,7.33
2018-07-05T02:26:18.054Z,6.17
2018-07-05T02:29:00.254Z,7.80
2018-07-05T02:31:42.333Z,6.90
2018-07-05T02:34:24.380Z,6.03
2018-07-05T02:37:10.645Z,7.25
2018-07-05T02:39:52.562Z,6.35
2018-07-05T02:42:34.426Z,5.67
2018-07-05T02:45:16.410Z,6.65
2018-07-05T02:47:58.334Z,5.30
2018-07-05T02:50:40.478Z,6.92
2018-07-05T02:53:22.610Z,7.67
2018-07-05T02:56:04.677Z,7.28
2018-07-05T02:58:46.642Z,8.45
2018-07-05T03:01:28.702Z,11.20
2018-07-05T03:04:10.834Z,7.08
2018-07-05T03:06:52.838Z,9.03
2018-07-05T03:09:34.910Z,5.58
2018-07-05T03:12:16.943Z,5.83
2018-07-05T03:14:58.988Z,7.12
2018-07-05T03:17:41.087Z,5.65
2018-07-05T03:20:23.313Z,5.37
2018-07-05T03:23:05.385Z,6.28
2018-07-05T03:25:47.378Z,9.88
2018-07-05T03:28:29.417Z,7.62
2018-07-05T03:31:11.454Z,9.38
2018-07-05T03:33:53.445Z,8.35
2018-07-05T03:36:35.470Z,5.85
2018-07-05T03:39:17.597Z,6.22
2018-07-05T03:41:59.442Z,6.35
2018-07-05T03:44:41.421Z,6.00
2018-07-05T03:47:23.629Z,11.55
2018-07-05T03:50:05.813Z,8.43
2018-07-05T03:52:47.816Z,5.30
2018-07-05T03:55:29.994Z,6.35
2018-07-05T03:58:12.293Z,7.35
2018-07-05T04:00:54.389Z,7.25
2018-07-05T04:03:36.589Z,6.70
2018-07-05T04:06:18.458Z,5.75
2018-07-05T04:09:00.406Z,6.87
2018-07-05T04:11:42.593Z,8.13
2018-07-05T04:14:24.533Z,10.00
2018-07-05T04:17:06.478Z,6.85
2018-07-05T04:19:50.493Z,6.33
2018-07-05T04:22:32.607Z,6.87
2018-07-05T04:25:14.674Z,6.90
2018-07-05T04:27:56.681Z,7.83
2018-07-05T04:30:38.854Z,6.62
2018-07-05T04:33:20.834Z,5.55
2018-07-05T04:36:02.682Z,5.83
2018-07-05T04:38:44.673Z,6.03
2018-07-05T04:41:26.926Z,5.58
2018-07-05T04:44:08.974Z,10.93
2018-07-05T04:46:51.265Z,5.42
2018-07-05T04:49:33.362Z,5.85
2018-07-05T04:52:15.301Z,6.78
2018-07-05T04:54:57.466Z,5.45
2018-07-05T04:57:39.402Z,5.60
2018-07-05T05:00:21.429Z,5.58
2018-07-05T05:03:03.546Z,6.83
2018-07-05T05:05:45.607Z,5.58
2018-07-05T05:08:27.530Z,6.25
2018-07-05T05:11:09.610Z,7.42
2018-07-05T05:13:51.574Z,6.50
2018-07-05T05:16:33.694Z,8.38
2018-07-05T05:19:15.814Z,7.42
2018-07-05T05:21:57.845Z,7.83
2018-07-05T05:24:39.938Z,6.30
2018-07-05T05:27:22.085Z,10.82
2018-07-05T05:30:04.267Z,7.08
2018-07-05T05:32:46.254Z,9.98
2018-07-05T05:35:28.458Z,6.22
2018-07-05T05:38:10.569Z,4.83
2018-07-05T05:40:52.640Z,5.35
2018-07-05T05:43:34.751Z,8.13
2018-07-05T05:46:16.837Z,6.83
2018-07-05T05:48:58.582Z,5.58
2018-07-05T05:51:40.553Z,7.60
2018-07-05T05:54:22.509Z,5.58
2018-07-05T05:57:04.374Z,5.65
2018-07-05T05:59:46.501Z,4.80
2018-07-05T06:02:28.562Z,7.85
2018-07-05T06:05:10.606Z,7.37
2018-07-05T06:07:52.772Z,12.07
2018-07-05T06:10:34.780Z,9.40
2018-07-05T06:13:16.945Z,7.83
2018-07-05T06:15:59.109Z,7.40
2018-07-05T06:18:41.270Z,6.22
2018-07-05T06:21:23.360Z,7.78
2018-07-05T06:24:05.390Z,9.65
2018-07-05T06:26:47.510Z,7.83
2018-07-05T06:29:29.713Z,7.10
2018-07-05T06:32:11.862Z,7.83
2018-07-05T06:34:53.722Z,7.43
2018-07-05T06:37:35.814Z,7.58
2018-07-05T06:40:17.897Z,7.58
2018-07-05T06:42:59.954Z,13.25
2018-07-05T06:45:41.889Z,12.78
2018-07-05T06:48:23.902Z,9.10
2018-07-05T06:51:05.825Z,8.90
2018-07-05T06:53:47.862Z,11.18
2018-07-05T06:56:30.014Z,13.00
2018-07-05T06:59:11.815Z,15.23
2018-07-05T07:01:53.982Z,12.68
2018-07-05T07:04:35.999Z,13.35
2018-07-05T07:07:17.817Z,14.03
2018-07-05T07:09:59.926Z,15.05
2018-07-05T07:12:42.050Z,14.10
2018-07-05T07:15:23.862Z,14.37
2018-07-05T07:18:05.758Z,14.23
2018-07-05T07:20:47.646Z,12.63
2018-07-05T07:23:29.495Z,14.27
2018-07-05T07:26:11.310Z,15.37
2018-07-05T07:28:53.114Z,12.60
2018-07-05T07:31:34.920Z,16.73
2018-07-05T07:34:16.717Z,16.97
2018-07-05T07:36:58.526Z,14.30
2018-07-05T07:39:40.406Z,12.95
2018-07-05T07:42:09.709Z,12.30
2018-07-05T07:44:39.001Z,15.80
2018-07-05T07:47:08.318Z,16.93
2018-07-05T07:49:37.602Z,13.30
2018-07-05T07:52:07.226Z,11.75
2018-07-05T07:54:36.510Z,13.80
2018-07-05T07:57:05.830Z,15.23
2018-07-05T07:59:35.118Z,14.07
2018-07-05T08:02:04.441Z,14.17
2018-07-05T08:04:33.725Z,18.20
2018-07-05T08:07:03.105Z,13.57
2018-07-05T08:09:32.425Z,16.87
2018-07-05T08:12:01.761Z,17.40
2018-07-05T08:14:31.558Z,18.80
2018-07-05T08:17:00.876Z,12.93
2018-07-05T08:19:30.162Z,15.63
2018-07-05T08:21:59.481Z,15.20
2018-07-05T08:24:28.773Z,23.07
2018-07-05T08:26:58.090Z,19.67
2018-07-05T08:29:27.405Z,17.53
2018-07-05T08:31:56.694Z,18.47
2018-07-05T08:34:26.190Z,15.67
2018-07-05T08:36:55.482Z,19.33
2018-07-05T08:39:24.804Z,12.87
2018-07-05T08:41:54.122Z,20.57
2018-07-05T08:44:23.442Z,16.30
2018-07-05T08:46:52.730Z,19.97
2018-07-05T08:49:22.013Z,18.07
2018-07-05T08:51:51.350Z,18.97
2018-07-05T08:54:20.638Z,15.77
2018-07-05T08:56:49.928Z,16.47
2018-07-05T08:59:19.242Z,16.40
2018-07-05T09:01:48.534Z,16.33
2018-07-05T09:04:17.870Z,16.33
2018-07-05T09:06:47.407Z,15.90
2018-07-05T09:09:16.609Z,16.47
2018-07-05T09:11:45.923Z,17.00
2018-07-05T09:14:15.406Z,19.50
2018-07-05T09:16:44.725Z,19.90
2018-07-05T09:19:14.055Z,23.90
2018-07-05T09:21:43.338Z,22.13
2018-07-05T09:24:12.685Z,17.20
2018-07-05T09:29:39.830Z,22.57
2018-07-05T09:32:15.095Z,15.77
2018-07-05T09:34:44.415Z,21.87
2018-07-05T09:37:13.797Z,23.13
2018-07-05T09:39:43.246Z,16.70
2018-07-05T09:42:12.554Z,18.23
2018-07-05T09:44:41.882Z,21.97
2018-07-05T09:47:11.187Z,23.03
2018-07-05T09:49:40.515Z,18.17
2018-07-05T09:52:09.819Z,16.13
2018-07-05T09:54:39.151Z,24.03
2018-07-05T09:57:08.454Z,22.60
2018-07-05T09:59:37.783Z,17.67
2018-07-05T10:02:07.071Z,21.00
2018-07-05T10:04:36.405Z,19.17
2018-07-05T10:07:05.706Z,23.00
2018-07-05T10:09:35.034Z,18.33
2018-07-05T10:12:04.339Z,24.10
2018-07-05T10:14:33.668Z,17.43
2018-07-05T10:17:02.975Z,17.37
2018-07-05T10:19:37.594Z,20.97
2018-07-05T10:22:06.892Z,20.17
2018-07-05T10:24:36.234Z,20.00
2018-07-05T10:27:05.623Z,22.57
2018-07-05T10:29:47.422Z,17.83
2018-07-05T10:32:29.252Z,18.27
2018-07-05T10:34:58.578Z,22.93
2018-07-05T10:37:27.882Z,19.70
2018-07-05T10:40:09.542Z,22.63
2018-07-05T10:42:51.437Z,23.57
2018-07-05T10:45:33.210Z,23.30
2018-07-05T10:48:15.095Z,19.93
2018-07-05T10:50:56.843Z,21.73
2018-07-05T10:53:38.707Z,23.40
2018-07-05T10:56:20.339Z,26.10
2018-07-05T10:59:02.295Z,24.37
2018-07-05T11:01:43.922Z,21.87
2018-07-05T11:04:25.795Z,14.20
2018-07-05T11:07:07.840Z,29.57
2018-07-05T11:09:49.930Z,21.47
2018-07-05T11:12:31.723Z,20.07
2018-07-05T11:15:13.630Z,21.43
2018-07-05T11:17:55.398Z,21.77
2018-07-05T11:20:37.158Z,23.20
2018-07-05T11:23:19.009Z,20.63
2018-07-05T11:26:00.802Z,23.30
2018-07-05T11:28:42.591Z,19.20
2018-07-05T11:31:24.304Z,24.93
2018-07-05T11:34:06.214Z,25.37
2018-07-05T11:36:48.003Z,26.63
2018-07-05T11:39:29.694Z,25.10
2018-07-05T11:42:11.563Z,20.80
2018-07-05T11:44:53.358Z,22.07
2018-07-05T11:47:35.204Z,24.40
2018-07-05T11:50:17.069Z,25.50
2018-07-05T11:52:59.240Z,21.23
2018-07-05T11:55:41.083Z,22.60
2018-07-05T11:58:22.741Z,20.97
2018-07-05T12:01:04.630Z,28.43
2018-07-05T12:03:46.382Z,24.37
2018-07-05T12:06:28.178Z,17.17
2018-07-05T12:09:10.375Z,21.53
2018-07-05T12:11:52.183Z,19.33
2018-07-05T12:14:34.079Z,17.30
2018-07-05T12:17:16.058Z,16.63
2018-07-05T12:19:57.978Z,15.70
2018-07-05T12:22:39.756Z,12.67
2018-07-05T12:25:21.638Z,19.53
2018-07-05T12:28:03.439Z,64.13
2018-07-05T12:30:45.299Z,16.20
2018-07-05T12:33:27.298Z,18.50
2018-07-05T12:36:09.174Z,21.93
2018-07-05T12:38:50.918Z,17.00
2018-07-05T12:41:32.555Z,21.10
2018-07-05T12:44:14.680Z,19.43
2018-07-05T12:46:56.638Z,16.57
2018-07-05T12:49:38.362Z,19.80
2018-07-05T12:52:20.219Z,20.93
2018-07-05T12:55:02.346Z,20.30
2018-07-05T12:57:44.000Z,19.07
2018-07-05T13:00:25.827Z,13.97
2018-07-05T13:03:07.563Z,16.80
2018-07-05T13:05:49.374Z,13.77
2018-07-05T13:08:31.328Z,14.40
2018-07-05T13:11:12.931Z,14.03
2018-07-05T13:13:54.678Z,15.30
2018-07-05T13:16:36.573Z,17.87
2018-07-05T13:19:18.370Z,11.33
2018-07-05T13:22:00.234Z,16.87
2018-07-05T13:24:42.178Z,12.47
2018-07-05T13:27:23.858Z,17.50
2018-07-05T13:30:05.668Z,11.03
2018-07-05T13:32:47.437Z,17.30
2018-07-05T13:35:29.183Z,14.97
2018-07-05T13:38:10.819Z,16.90
2018-07-05T13:40:52.754Z,20.17
2018-07-05T13:43:34.622Z,12.67
2018-07-05T13:46:16.503Z,12.80
2018-07-05T13:48:58.298Z,10.37
2018-07-05T13:51:40.055Z,8.87
2018-07-05T13:54:22.012Z,13.00
2018-07-05T13:57:03.636Z,11.83
2018-07-05T13:59:45.459Z,8.33
2018-07-05T14:02:27.337Z,11.43
2018-07-05T14:05:09.026Z,9.33
2018-07-05T14:07:50.969Z,12.97
2018-07-05T14:10:32.906Z,9.40
2018-07-05T14:13:14.792Z,11.57
2018-07-05T14:15:56.718Z,13.33
2018-07-05T14:18:38.553Z,9.63
2018-07-05T14:21:20.395Z,12.03
2018-07-05T14:24:02.259Z,11.87
2018-07-05T14:26:44.075Z,9.77
2018-07-05T14:29:25.938Z,7.60
2018-07-05T14:32:07.726Z,12.30
2018-07-05T14:34:49.874Z,9.57
2018-07-05T14:37:31.815Z,10.77
2018-07-05T14:40:13.758Z,9.93
2018-07-05T14:42:55.495Z,10.07
2018-07-05T14:45:37.307Z,7.03
2018-07-05T14:48:19.097Z,11.77
2018-07-05T14:51:00.826Z,9.63
2018-07-05T14:53:36.581Z,7.07
2018-07-05T14:56:18.318Z,9.13
2018-07-05T14:58:59.919Z,8.63
2018-07-05T15:01:41.768Z,11.03
2018-07-05T15:04:23.863Z,12.33
2018-07-05T15:07:05.618Z,12.03
2018-07-05T15:09:47.435Z,14.93
2018-07-05T15:12:29.470Z,9.13
2018-07-05T15:15:11.646Z,12.37
2018-07-05T15:17:53.298Z,10.03
2018-07-05T15:20:35.217Z,7.83
2018-07-05T15:23:16.968Z,10.60
2018-07-05T15:25:58.822Z,10.53
2018-07-05T15:28:40.510Z,8.53
2018-07-05T15:31:22.271Z,15.70
2018-07-05T15:34:04.150Z,9.27
2018-07-05T15:36:46.072Z,7.17
2018-07-05T15:39:27.951Z,9.10
2018-07-05T15:42:09.650Z,11.70
2018-07-05T15:44:51.487Z,7.40
2018-07-05T15:47:33.218Z,8.53
2018-07-05T15:50:15.020Z,6.80
2018-07-05T15:52:56.858Z,11.00
2018-07-05T15:55:38.774Z,10.10
2018-07-05T15:58:20.559Z,7.33
2018-07-05T16:01:02.383Z,10.40
2018-07-05T16:03:44.048Z,6.23
2018-07-05T16:06:25.942Z,8.43
2018-07-05T16:09:07.695Z,10.80
2018-07-05T16:11:49.622Z,12.47
2018-07-05T16:14:31.331Z,7.60
2018-07-05T16:17:13.198Z,7.33
2018-07-05T16:19:54.744Z,12.60
2018-07-05T16:22:36.638Z,5.83
2018-07-05T16:25:18.499Z,4.87
2018-07-05T16:28:00.206Z,12.13
2018-07-05T16:30:41.935Z,13.17
2018-07-05T16:33:23.695Z,7.30
2018-07-05T16:36:05.484Z,10.30
2018-07-05T16:38:47.310Z,12.00
2018-07-05T16:41:29.187Z,8.10
2018-07-05T16:44:10.940Z,10.57
2018-07-05T16:46:52.866Z,7.60
2018-07-05T16:49:34.642Z,9.87
2018-07-05T16:52:16.451Z,7.10
2018-07-05T16:54:58.118Z,7.00
2018-07-05T16:57:39.902Z,7.73
2018-07-05T17:00:21.694Z,7.47
2018-07-05T17:03:03.563Z,9.50
2018-07-05T17:05:45.335Z,7.40
2018-07-05T17:08:27.046Z,7.33
2018-07-05T17:11:08.906Z,8.63
2018-07-05T17:13:50.878Z,7.10
2018-07-05T17:16:32.985Z,8.00
2018-07-05T17:19:14.938Z,7.83
2018-07-05T17:21:56.830Z,7.23
2018-07-05T17:24:38.595Z,8.03
2018-07-05T17:27:20.411Z,7.13
2018-07-05T17:30:02.159Z,6.63
2018-07-05T17:32:44.075Z,7.17
2018-07-05T17:35:25.887Z,7.93
2018-07-05T17:38:07.574Z,7.47
2018-07-05T17:40:49.286Z,7.77
2018-07-05T17:43:31.098Z,7.40
2018-07-05T17:46:12.898Z,10.30
2018-07-05T17:48:54.694Z,11.57
2018-07-05T17:51:36.451Z,7.47
2018-07-05T17:54:18.342Z,8.07
2018-07-05T17:57:00.182Z,7.30
2018-07-05T17:59:41.850Z,7.23
2018-07-05T18:02:23.706Z,7.97
2018-07-05T18:05:05.642Z,7.80
2018-07-05T18:07:47.562Z,8.57
2018-07-05T18:10:29.418Z,7.30
2018-07-05T18:13:11.235Z,9.63
2018-07-05T18:15:53.158Z,7.97
2018-07-05T18:18:34.929Z,6.83
2018-07-05T18:21:16.747Z,9.20
2018-07-05T18:23:58.450Z,6.57
2018-07-05T18:26:40.250Z,7.10
2018-07-05T18:29:22.124Z,7.10
2018-07-05T18:32:04.019Z,7.87
2018-07-05T18:34:45.794Z,6.70
2018-07-05T18:37:27.618Z,6.10
2018-07-05T18:40:09.570Z,7.87
2018-07-05T18:42:51.426Z,6.83
2018-07-05T18:45:33.282Z,7.77
2018-07-05T18:48:15.057Z,7.27
2018-07-05T18:50:56.879Z,6.90
2018-07-05T18:53:38.747Z,7.07
2018-07-05T18:56:20.602Z,6.73
2018-07-05T18:59:02.593Z,6.17
2018-07-05T19:01:44.411Z,6.23
2018-07-05T19:04:26.206Z,5.60
2018-07-05T19:07:08.091Z,8.20
2018-07-05T19:09:49.730Z,6.63
2018-07-05T19:12:31.507Z,7.77
2018-07-05T19:15:13.214Z,6.10
2018-07-05T19:17:55.013Z,6.97
2018-07-05T19:20:36.822Z,7.93
2018-07-05T19:23:18.622Z,6.90
2018-07-05T19:26:00.430Z,6.87
2018-07-05T19:28:42.362Z,6.53
2018-07-05T19:31:24.366Z,7.23
2018-07-05T19:34:06.275Z,7.13
2018-07-05T19:36:48.138Z,6.40
2018-07-05T19:39:29.931Z,6.53
2018-07-05T19:42:11.776Z,5.87
2018-07-05T19:44:53.638Z,6.13
2018-07-05T19:47:35.331Z,9.23
2018-07-05T19:50:17.219Z,6.33
2018-07-05T19:52:59.086Z,8.77
2018-07-05T19:55:41.257Z,7.10
2018-07-05T19:58:23.701Z,6.60
2018-07-05T20:01:05.834Z,7.90
2018-07-05T20:03:47.728Z,6.77
2018-07-05T20:06:30.416Z,8.37
2018-07-05T20:09:12.064Z,7.57
2018-07-05T20:11:59.446Z,8.90
2018-07-05T20:14:41.621Z,6.50
2018-07-05T20:17:23.295Z,7.53
2018-07-05T20:20:05.073Z,7.77
2018-07-05T20:22:48.839Z,7.37
2018-07-05T20:25:30.452Z,8.50
2018-07-05T20:28:12.242Z,10.10
2018-07-05T20:30:54.231Z,7.97
2018-07-05T20:33:35.851Z,7.70
2018-07-05T20:36:17.667Z,7.20
2018-07-05T20:38:59.402Z,7.70
2018-07-05T20:41:41.296Z,10.47
2018-07-05T20:44:23.182Z,6.83
2018-07-05T20:47:05.126Z,8.43
2018-07-05T20:49:46.771Z,8.20
2018-07-05T20:52:28.658Z,7.70
2018-07-05T20:55:10.543Z,8.13
2018-07-05T20:57:52.498Z,7.23
2018-07-05T21:00:34.350Z,8.00
2018-07-05T21:03:16.474Z,8.10
2018-07-05T21:05:58.238Z,8.20
2018-07-05T21:08:40.074Z,9.40
2018-07-05T21:11:22.110Z,8.95
2018-07-05T21:14:03.934Z,8.47
2018-07-05T21:16:46.014Z,7.10
2018-07-05T21:19:28.082Z,10.40
2018-07-05T21:22:10.230Z,10.98
2018-07-05T21:24:52.266Z,7.67
2018-07-05T21:27:34.410Z,8.43
2018-07-05T21:30:16.454Z,7.62
2018-07-05T21:32:58.598Z,8.10
2018-07-05T21:35:40.790Z,8.60
2018-07-05T21:38:22.802Z,9.08
2018-07-05T21:41:04.862Z,9.83
2018-07-05T21:43:46.862Z,8.13
2018-07-05T21:46:29.044Z,7.58
2018-07-05T21:49:11.042Z,7.28
2018-07-05T21:51:53.078Z,7.25
2018-07-05T21:54:35.015Z,5.25
2018-07-05T21:57:16.913Z,6.25
2018-07-05T21:59:58.927Z,6.75
2018-07-05T22:02:41.011Z,6.12
2018-07-05T22:05:23.015Z,8.43
2018-07-05T22:08:05.123Z,5.03
2018-07-05T22:10:47.179Z,7.20
2018-07-05T22:13:29.079Z,7.17
2018-07-05T22:16:11.231Z,5.45
2018-07-05T22:18:58.606Z,3.77
2018-07-05T22:21:46.152Z,4.62
2018-07-05T22:24:34.067Z,5.40
2018-07-05T22:27:21.458Z,4.00
2018-07-05T22:30:08.966Z,5.85
2018-07-05T22:32:51.059Z,3.80
2018-07-05T22:35:32.951Z,5.30
2018-07-05T22:38:15.015Z,5.15
2018-07-05T22:40:57.190Z,3.65
2018-07-05T22:43:39.047Z,3.67
2018-07-05T22:46:21.046Z,3.72
2018-07-05T22:49:03.151Z,3.65
2018-07-05T22:51:45.234Z,3.35
2018-07-05T22:54:27.351Z,6.05
2018-07-05T22:57:09.406Z,4.05
2018-07-05T22:59:51.454Z,3.55
2018-07-05T23:02:33.511Z,2.60
2018-07-05T23:05:15.659Z,4.40
2018-07-05T23:07:57.602Z,4.42
2018-07-05T23:10:39.688Z,3.22
2018-07-05T23:13:21.832Z,3.95
2018-07-05T23:16:04.062Z,4.65
2018-07-05T23:18:46.215Z,5.90
2018-07-05T23:21:28.377Z,5.37
2018-07-05T23:24:10.486Z,4.50
2018-07-05T23:26:52.706Z,6.05
2018-07-05T23:29:34.887Z,4.80
2018-07-05T23:32:16.726Z,5.70
2018-07-05T23:34:58.712Z,4.85
2018-07-05T23:37:40.836Z,3.98
2018-07-05T23:40:22.886Z,4.47
2018-07-05T23:43:05.070Z,3.92
2018-07-05T23:45:47.063Z,5.75
2018-07-05T23:48:29.159Z,5.42
2018-07-05T23:51:11.370Z,5.25
2018-07-05T23:53:53.286Z,4.60
2018-07-05T23:56:35.451Z,6.90
2018-07-05T23:59:17.515Z,5.10
